sensor_id;sensor_type;location;lat;lon;timestamp;temperature;humidity
23143;DHT22;11740;51.168;4.112;2023-03-03T00:01:52;3.30;99.90
23143;DHT22;11740;51.168;4.112;2023-03-03T00:04:19;3.30;99.90
23143;DHT22;11740;51.168;4.112;2023-03-03T00:06:46;3.20;99.90
23143;DHT22;11740;51.168;4.112;2023-03-03T00:09:13;3.20;99.90
23143;DHT22;11740;51.168;4.112;2023-03-03T00:11:40;3.10;99.90
23143;DHT22;11740;51.168;4.112;2023-03-03T00:14:16;3.10;99.90
23143;DHT22;11740;51.168;4.112;2023-03-03T00:16:45;3.00;99.90
23143;DHT22;11740;51.168;4.112;2023-03-03T00:19:16;3.00;99.90
23143;DHT22;11740;51.168;4.112;2023-03-03T00:21:45;2.90;99.90
23143;DHT22;11740;51.168;4.112;2023-03-03T00:26:40;2.90;99.90
23143;DHT22;11740;51.168;4.112;2023-03-03T00:31:58;2.80;99.90
23143;DHT22;11740;51.168;4.112;2023-03-03T00:34:42;2.70;99.90
23143;DHT22;11740;51.168;4.112;2023-03-03T00:37:21;2.70;99.90
23143;DHT22;11740;51.168;4.112;2023-03-03T00:39:49;2.70;99.90
23143;DHT22;11740;51.168;4.112;2023-03-03T00:42:16;2.60;99.90
23143;DHT22;11740;51.168;4.112;2023-03-03T00:44:51;2.60;99.90
23143;DHT22;11740;51.168;4.112;2023-03-03T00:52:37;2.50;99.90
23143;DHT22;11740;51.168;4.112;2023-03-03T00:55:10;2.40;99.90
23143;DHT22;11740;51.168;4.112;2023-03-03T00:57:37;2.40;99.90
23143;DHT22;11740;51.168;4.112;2023-03-03T01:00:04;2.30;99.90
23143;DHT22;11740;51.168;4.112;2023-03-03T01:02:32;2.30;99.90
23143;DHT22;11740;51.168;4.112;2023-03-03T01:04:59;2.30;99.90
23143;DHT22;11740;51.168;4.112;2023-03-03T01:07:25;2.20;1.00
23143;DHT22;11740;51.168;4.112;2023-03-03T01:09:52;2.20;1.00
23143;DHT22;11740;51.168;4.112;2023-03-03T01:12:19;2.20;1.00
23143;DHT22;11740;51.168;4.112;2023-03-03T01:14:46;2.10;1.00
23143;DHT22;11740;51.168;4.112;2023-03-03T01:17:14;2.10;1.00
23143;DHT22;11740;51.168;4.112;2023-03-03T01:19:41;2.10;1.00
23143;DHT22;11740;51.168;4.112;2023-03-03T01:22:08;2.10;1.00
23143;DHT22;11740;51.168;4.112;2023-03-03T01:24:35;2.00;1.00
23143;DHT22;11740;51.168;4.112;2023-03-03T01:27:02;2.00;1.00
23143;DHT22;11740;51.168;4.112;2023-03-03T01:29:29;2.00;99.90
23143;DHT22;11740;51.168;4.112;2023-03-03T01:31:55;1.90;99.90
23143;DHT22;11740;51.168;4.112;2023-03-03T01:34:23;1.90;99.90
23143;DHT22;11740;51.168;4.112;2023-03-03T01:36:50;1.90;1.00
23143;DHT22;11740;51.168;4.112;2023-03-03T01:39:17;1.90;1.00
23143;DHT22;11740;51.168;4.112;2023-03-03T01:41:43;1.90;1.00
23143;DHT22;11740;51.168;4.112;2023-03-03T01:44:12;1.90;1.00
23143;DHT22;11740;51.168;4.112;2023-03-03T01:49:39;1.80;99.90
23143;DHT22;11740;51.168;4.112;2023-03-03T01:52:09;1.70;99.90
23143;DHT22;11740;51.168;4.112;2023-03-03T01:54:47;1.70;99.90
23143;DHT22;11740;51.168;4.112;2023-03-03T01:57:18;1.70;99.90
23143;DHT22;11740;51.168;4.112;2023-03-03T01:59:49;1.70;92.30
23143;DHT22;11740;51.168;4.112;2023-03-03T02:02:18;1.70;11.50
23143;DHT22;11740;51.168;4.112;2023-03-03T02:04:45;1.60;99.90
23143;DHT22;11740;51.168;4.112;2023-03-03T02:07:12;1.60;80.50
23143;DHT22;11740;51.168;4.112;2023-03-03T02:12:33;1.60;4.50
23143;DHT22;11740;51.168;4.112;2023-03-03T02:15:26;1.60;1.00
23143;DHT22;11740;51.168;4.112;2023-03-03T02:17:54;1.50;1.00
23143;DHT22;11740;51.168;4.112;2023-03-03T02:20:35;1.40;1.00
23143;DHT22;11740;51.168;4.112;2023-03-03T02:23:18;1.40;1.00
23143;DHT22;11740;51.168;4.112;2023-03-03T02:28:28;1.40;1.00
23143;DHT22;11740;51.168;4.112;2023-03-03T02:30:57;1.40;1.00
23143;DHT22;11740;51.168;4.112;2023-03-03T02:33:25;1.40;1.00
23143;DHT22;11740;51.168;4.112;2023-03-03T02:35:52;1.30;1.00
23143;DHT22;11740;51.168;4.112;2023-03-03T02:41:02;1.20;1.00
23143;DHT22;11740;51.168;4.112;2023-03-03T02:43:45;1.20;1.00
23143;DHT22;11740;51.168;4.112;2023-03-03T02:46:17;1.10;1.00
23143;DHT22;11740;51.168;4.112;2023-03-03T02:48:44;1.10;1.00
23143;DHT22;11740;51.168;4.112;2023-03-03T02:51:11;1.10;70.40
23143;DHT22;11740;51.168;4.112;2023-03-03T02:53:39;1.10;64.90
23143;DHT22;11740;51.168;4.112;2023-03-03T02:56:06;1.00;23.40
23143;DHT22;11740;51.168;4.112;2023-03-03T02:58:35;1.00;99.90
23143;DHT22;11740;51.168;4.112;2023-03-03T03:01:03;1.00;99.90
23143;DHT22;11740;51.168;4.112;2023-03-03T03:03:30;1.00;99.90
23143;DHT22;11740;51.168;4.112;2023-03-03T03:05:57;1.00;99.90
23143;DHT22;11740;51.168;4.112;2023-03-03T03:08:24;0.90;99.90
23143;DHT22;11740;51.168;4.112;2023-03-03T03:10:51;0.90;99.90
23143;DHT22;11740;51.168;4.112;2023-03-03T03:13:17;0.90;99.90
23143;DHT22;11740;51.168;4.112;2023-03-03T03:15:45;0.80;99.90
23143;DHT22;11740;51.168;4.112;2023-03-03T03:18:12;0.80;99.90
23143;DHT22;11740;51.168;4.112;2023-03-03T03:20:40;0.80;99.90
23143;DHT22;11740;51.168;4.112;2023-03-03T03:23:07;0.80;99.90
23143;DHT22;11740;51.168;4.112;2023-03-03T03:25:35;0.80;99.90
23143;DHT22;11740;51.168;4.112;2023-03-03T03:28:08;0.70;99.90
23143;DHT22;11740;51.168;4.112;2023-03-03T03:30:35;0.70;99.90
23143;DHT22;11740;51.168;4.112;2023-03-03T03:33:02;0.70;99.90
23143;DHT22;11740;51.168;4.112;2023-03-03T03:35:28;0.70;99.90
23143;DHT22;11740;51.168;4.112;2023-03-03T03:37:55;0.70;99.90
23143;DHT22;11740;51.168;4.112;2023-03-03T03:40:22;0.60;99.90
23143;DHT22;11740;51.168;4.112;2023-03-03T03:42:51;0.60;1.00
23143;DHT22;11740;51.168;4.112;2023-03-03T03:45:18;0.60;1.00
23143;DHT22;11740;51.168;4.112;2023-03-03T03:47:46;0.60;1.00
23143;DHT22;11740;51.168;4.112;2023-03-03T03:50:13;0.60;1.00
23143;DHT22;11740;51.168;4.112;2023-03-03T03:52:40;0.60;13.40
23143;DHT22;11740;51.168;4.112;2023-03-03T03:55:09;0.60;10.80
23143;DHT22;11740;51.168;4.112;2023-03-03T03:57:36;0.60;99.90
23143;DHT22;11740;51.168;4.112;2023-03-03T04:00:05;0.50;66.60
23143;DHT22;11740;51.168;4.112;2023-03-03T04:02:34;0.50;85.30
23143;DHT22;11740;51.168;4.112;2023-03-03T04:05:02;0.50;99.90
23143;DHT22;11740;51.168;4.112;2023-03-03T04:07:30;0.50;88.50
23143;DHT22;11740;51.168;4.112;2023-03-03T04:09:57;0.50;99.90
23143;DHT22;11740;51.168;4.112;2023-03-03T04:12:23;0.50;99.90
23143;DHT22;11740;51.168;4.112;2023-03-03T04:14:50;0.50;99.90
23143;DHT22;11740;51.168;4.112;2023-03-03T04:17:18;0.50;99.90
23143;DHT22;11740;51.168;4.112;2023-03-03T04:19:46;0.50;1.00
23143;DHT22;11740;51.168;4.112;2023-03-03T04:22:12;0.50;1.00
23143;DHT22;11740;51.168;4.112;2023-03-03T04:24:40;0.50;1.00
23143;DHT22;11740;51.168;4.112;2023-03-03T04:27:07;0.40;1.00
23143;DHT22;11740;51.168;4.112;2023-03-03T04:29:37;0.40;1.00
23143;DHT22;11740;51.168;4.112;2023-03-03T04:32:04;0.50;1.00
23143;DHT22;11740;51.168;4.112;2023-03-03T04:34:31;0.40;1.00
23143;DHT22;11740;51.168;4.112;2023-03-03T04:36:57;0.40;1.00
23143;DHT22;11740;51.168;4.112;2023-03-03T04:39:24;0.40;1.00
23143;DHT22;11740;51.168;4.112;2023-03-03T04:41:52;0.40;1.00
23143;DHT22;11740;51.168;4.112;2023-03-03T04:44:19;0.30;1.00
23143;DHT22;11740;51.168;4.112;2023-03-03T04:46:46;0.40;1.00
23143;DHT22;11740;51.168;4.112;2023-03-03T04:49:13;0.30;1.00
23143;DHT22;11740;51.168;4.112;2023-03-03T04:51:40;0.30;19.70
23143;DHT22;11740;51.168;4.112;2023-03-03T04:54:07;0.30;99.90
23143;DHT22;11740;51.168;4.112;2023-03-03T04:56:33;0.30;99.90
23143;DHT22;11740;51.168;4.112;2023-03-03T04:59:00;0.20;92.50
23143;DHT22;11740;51.168;4.112;2023-03-03T05:01:27;0.20;99.90
23143;DHT22;11740;51.168;4.112;2023-03-03T05:03:54;0.20;99.90
23143;DHT22;11740;51.168;4.112;2023-03-03T05:06:21;0.20;99.90
23143;DHT22;11740;51.168;4.112;2023-03-03T05:08:48;0.10;99.90
23143;DHT22;11740;51.168;4.112;2023-03-03T05:11:14;0.10;99.90
23143;DHT22;11740;51.168;4.112;2023-03-03T05:13:41;0.20;99.90
23143;DHT22;11740;51.168;4.112;2023-03-03T05:16:08;0.20;99.90
23143;DHT22;11740;51.168;4.112;2023-03-03T05:18:35;0.20;99.90
23143;DHT22;11740;51.168;4.112;2023-03-03T05:21:02;0.20;99.90
23143;DHT22;11740;51.168;4.112;2023-03-03T05:23:29;0.20;99.90
23143;DHT22;11740;51.168;4.112;2023-03-03T05:25:56;0.20;99.90
23143;DHT22;11740;51.168;4.112;2023-03-03T05:28:23;0.20;99.90
23143;DHT22;11740;51.168;4.112;2023-03-03T05:30:50;0.20;1.00
23143;DHT22;11740;51.168;4.112;2023-03-03T05:33:17;0.20;1.00
23143;DHT22;11740;51.168;4.112;2023-03-03T05:35:44;0.30;1.00
23143;DHT22;11740;51.168;4.112;2023-03-03T05:38:11;0.30;1.00
23143;DHT22;11740;51.168;4.112;2023-03-03T05:40:38;0.30;1.00
23143;DHT22;11740;51.168;4.112;2023-03-03T05:43:05;0.30;1.00
23143;DHT22;11740;51.168;4.112;2023-03-03T05:45:32;0.30;1.00
23143;DHT22;11740;51.168;4.112;2023-03-03T05:48:00;0.30;85.30
23143;DHT22;11740;51.168;4.112;2023-03-03T05:50:28;0.30;56.70
23143;DHT22;11740;51.168;4.112;2023-03-03T05:52:55;0.30;99.90
23143;DHT22;11740;51.168;4.112;2023-03-03T05:55:23;0.30;99.90
23143;DHT22;11740;51.168;4.112;2023-03-03T05:57:50;0.30;99.90
23143;DHT22;11740;51.168;4.112;2023-03-03T06:00:17;0.30;99.90
23143;DHT22;11740;51.168;4.112;2023-03-03T06:02:44;0.30;99.90
23143;DHT22;11740;51.168;4.112;2023-03-03T06:05:11;0.30;99.90
23143;DHT22;11740;51.168;4.112;2023-03-03T06:07:38;0.40;99.90
23143;DHT22;11740;51.168;4.112;2023-03-03T06:10:05;0.30;99.90
23143;DHT22;11740;51.168;4.112;2023-03-03T06:12:32;0.30;99.90
23143;DHT22;11740;51.168;4.112;2023-03-03T06:14:59;0.40;99.90
23143;DHT22;11740;51.168;4.112;2023-03-03T06:17:26;0.30;96.60
23143;DHT22;11740;51.168;4.112;2023-03-03T06:19:53;0.40;58.30
23143;DHT22;11740;51.168;4.112;2023-03-03T06:22:20;0.40;99.90
23143;DHT22;11740;51.168;4.112;2023-03-03T06:24:46;0.40;99.90
23143;DHT22;11740;51.168;4.112;2023-03-03T06:27:13;0.40;99.90
23143;DHT22;11740;51.168;4.112;2023-03-03T06:29:40;0.40;99.90
23143;DHT22;11740;51.168;4.112;2023-03-03T06:32:07;0.40;99.90
23143;DHT22;11740;51.168;4.112;2023-03-03T06:34:35;0.40;99.90
23143;DHT22;11740;51.168;4.112;2023-03-03T06:37:01;0.50;99.90
23143;DHT22;11740;51.168;4.112;2023-03-03T06:39:28;0.40;99.90
23143;DHT22;11740;51.168;4.112;2023-03-03T06:41:55;0.40;99.90
23143;DHT22;11740;51.168;4.112;2023-03-03T06:44:22;0.50;99.90
23143;DHT22;11740;51.168;4.112;2023-03-03T06:46:49;0.50;99.90
23143;DHT22;11740;51.168;4.112;2023-03-03T06:49:16;0.50;99.90
23143;DHT22;11740;51.168;4.112;2023-03-03T06:51:43;0.50;99.90
23143;DHT22;11740;51.168;4.112;2023-03-03T06:54:13;0.50;99.90
23143;DHT22;11740;51.168;4.112;2023-03-03T06:56:42;0.50;70.30
23143;DHT22;11740;51.168;4.112;2023-03-03T06:59:16;0.50;61.50
23143;DHT22;11740;51.168;4.112;2023-03-03T07:01:45;0.50;23.70
23143;DHT22;11740;51.168;4.112;2023-03-03T07:04:22;0.50;99.90
23143;DHT22;11740;51.168;4.112;2023-03-03T07:06:51;0.60;24.30
23143;DHT22;11740;51.168;4.112;2023-03-03T07:09:20;0.60;62.10
23143;DHT22;11740;51.168;4.112;2023-03-03T07:11:53;0.60;47.90
23143;DHT22;11740;51.168;4.112;2023-03-03T07:14:43;0.60;99.90
23143;DHT22;11740;51.168;4.112;2023-03-03T07:17:16;0.60;60.80
23143;DHT22;11740;51.168;4.112;2023-03-03T07:19:45;0.70;99.90
23143;DHT22;11740;51.168;4.112;2023-03-03T07:24:40;0.70;99.90
23143;DHT22;11740;51.168;4.112;2023-03-03T07:27:10;0.60;99.90
23143;DHT22;11740;51.168;4.112;2023-03-03T07:29:39;0.70;99.40
23143;DHT22;11740;51.168;4.112;2023-03-03T07:35:07;0.70;56.80
23143;DHT22;11740;51.168;4.112;2023-03-03T07:37:49;0.70;42.40
23143;DHT22;11740;51.168;4.112;2023-03-03T07:43:46;0.70;99.90
23143;DHT22;11740;51.168;4.112;2023-03-03T07:45:57;0.80;99.90
23143;DHT22;11740;51.168;4.112;2023-03-03T07:48:30;0.80;99.90
23143;DHT22;11740;51.168;4.112;2023-03-03T07:51:11;0.80;99.90
23143;DHT22;11740;51.168;4.112;2023-03-03T07:53:42;0.80;99.90
23143;DHT22;11740;51.168;4.112;2023-03-03T07:59:01;0.90;99.90
23143;DHT22;11740;51.168;4.112;2023-03-03T08:01:38;0.90;99.90
23143;DHT22;11740;51.168;4.112;2023-03-03T08:06:47;1.00;99.90
23143;DHT22;11740;51.168;4.112;2023-03-03T08:11:52;1.00;99.90
23143;DHT22;11740;51.168;4.112;2023-03-03T08:14:25;1.00;99.90
23143;DHT22;11740;51.168;4.112;2023-03-03T08:16:54;1.10;99.90
23143;DHT22;11740;51.168;4.112;2023-03-03T08:19:22;1.10;99.90
23143;DHT22;11740;51.168;4.112;2023-03-03T08:21:49;1.10;99.90
23143;DHT22;11740;51.168;4.112;2023-03-03T08:24:17;1.10;99.90
23143;DHT22;11740;51.168;4.112;2023-03-03T08:26:44;1.20;99.90
23143;DHT22;11740;51.168;4.112;2023-03-03T08:29:10;1.20;99.90
23143;DHT22;11740;51.168;4.112;2023-03-03T08:31:37;1.20;99.90
23143;DHT22;11740;51.168;4.112;2023-03-03T08:34:07;1.30;99.90
23143;DHT22;11740;51.168;4.112;2023-03-03T08:36:34;1.30;99.90
23143;DHT22;11740;51.168;4.112;2023-03-03T08:39:01;1.30;99.90
23143;DHT22;11740;51.168;4.112;2023-03-03T08:41:29;1.30;99.90
23143;DHT22;11740;51.168;4.112;2023-03-03T08:43:56;1.30;99.90
23143;DHT22;11740;51.168;4.112;2023-03-03T08:46:23;1.40;83.20
23143;DHT22;11740;51.168;4.112;2023-03-03T08:48:50;1.40;99.90
23143;DHT22;11740;51.168;4.112;2023-03-03T08:51:18;1.40;99.90
23143;DHT22;11740;51.168;4.112;2023-03-03T08:53:45;1.50;99.90
23143;DHT22;11740;51.168;4.112;2023-03-03T08:56:11;1.50;54.30
23143;DHT22;11740;51.168;4.112;2023-03-03T08:58:38;1.50;99.90
23143;DHT22;11740;51.168;4.112;2023-03-03T09:01:25;1.60;99.90
23143;DHT22;11740;51.168;4.112;2023-03-03T09:03:52;1.60;67.20
23143;DHT22;11740;51.168;4.112;2023-03-03T09:06:18;1.60;99.90
23143;DHT22;11740;51.168;4.112;2023-03-03T09:08:45;1.70;99.90
23143;DHT22;11740;51.168;4.112;2023-03-03T09:11:13;1.70;94.80
23143;DHT22;11740;51.168;4.112;2023-03-03T09:13:40;1.70;99.90
23143;DHT22;11740;51.168;4.112;2023-03-03T09:16:14;1.70;19.70
23143;DHT22;11740;51.168;4.112;2023-03-03T09:18:41;1.70;1.00
23143;DHT22;11740;51.168;4.112;2023-03-03T09:21:22;1.80;1.00
23143;DHT22;11740;51.168;4.112;2023-03-03T09:23:55;1.80;1.00
23143;DHT22;11740;51.168;4.112;2023-03-03T09:31:50;1.90;1.00
23143;DHT22;11740;51.168;4.112;2023-03-03T09:34:26;2.00;1.00
23143;DHT22;11740;51.168;4.112;2023-03-03T09:36:56;2.00;1.00
23143;DHT22;11740;51.168;4.112;2023-03-03T09:39:26;2.00;1.00
23143;DHT22;11740;51.168;4.112;2023-03-03T10:04:42;2.60;99.90
23143;DHT22;11740;51.168;4.112;2023-03-03T10:10:16;2.70;29.70
23143;DHT22;11740;51.168;4.112;2023-03-03T10:21:24;2.80;28.90
23143;DHT22;11740;51.168;4.112;2023-03-03T10:26:50;2.80;3.30
23143;DHT22;11740;51.168;4.112;2023-03-03T10:29:42;2.90;1.00
23143;DHT22;11740;51.168;4.112;2023-03-03T10:56:35;3.30;1.00
23143;DHT22;11740;51.168;4.112;2023-03-03T10:59:24;3.30;1.00
23143;DHT22;11740;51.168;4.112;2023-03-03T11:02:26;3.40;1.00
23143;DHT22;11740;51.168;4.112;2023-03-03T11:05:08;3.50;1.00
23143;DHT22;11740;51.168;4.112;2023-03-03T11:07:41;3.60;1.00
23143;DHT22;11740;51.168;4.112;2023-03-03T11:10:17;3.60;1.00
23143;DHT22;11740;51.168;4.112;2023-03-03T11:13:34;3.60;99.90
23143;DHT22;11740;51.168;4.112;2023-03-03T11:16:12;3.60;99.90
23143;DHT22;11740;51.168;4.112;2023-03-03T11:21:37;3.70;99.90
23143;DHT22;11740;51.168;4.112;2023-03-03T11:24:12;3.80;99.90
23143;DHT22;11740;51.168;4.112;2023-03-03T11:26:44;3.90;99.90
23143;DHT22;11740;51.168;4.112;2023-03-03T11:32:17;4.00;99.90
23143;DHT22;11740;51.168;4.112;2023-03-03T11:34:57;4.00;99.90
23143;DHT22;11740;51.168;4.112;2023-03-03T11:37:34;4.10;99.90
23143;DHT22;11740;51.168;4.112;2023-03-03T11:40:09;4.10;99.90
23143;DHT22;11740;51.168;4.112;2023-03-03T11:45:12;4.20;99.90
23143;DHT22;11740;51.168;4.112;2023-03-03T11:47:53;4.20;93.90
23143;DHT22;11740;51.168;4.112;2023-03-03T11:55:44;4.40;27.30
23143;DHT22;11740;51.168;4.112;2023-03-03T11:58:19;4.50;17.70
23143;DHT22;11740;51.168;4.112;2023-03-03T12:01:38;4.50;2.00
23143;DHT22;11740;51.168;4.112;2023-03-03T12:09:39;4.70;1.00
23143;DHT22;11740;51.168;4.112;2023-03-03T12:12:19;4.80;1.00
23143;DHT22;11740;51.168;4.112;2023-03-03T12:20:09;4.90;1.00
23143;DHT22;11740;51.168;4.112;2023-03-03T12:22:51;5.00;1.00
23143;DHT22;11740;51.168;4.112;2023-03-03T12:25:34;5.10;1.00
23143;DHT22;11740;51.168;4.112;2023-03-03T12:28:09;5.20;1.00
23143;DHT22;11740;51.168;4.112;2023-03-03T12:45:20;6.10;99.90
23143;DHT22;11740;51.168;4.112;2023-03-03T12:53:17;6.30;99.90
23143;DHT22;11740;51.168;4.112;2023-03-03T12:55:48;6.30;66.30
23143;DHT22;11740;51.168;4.112;2023-03-03T13:04:03;6.70;58.60
23143;DHT22;11740;51.168;4.112;2023-03-03T13:23:42;7.30;1.00
23143;DHT22;11740;51.168;4.112;2023-03-03T13:26:35;7.50;1.00
23143;DHT22;11740;51.168;4.112;2023-03-03T13:31:50;7.70;1.00
23143;DHT22;11740;51.168;4.112;2023-03-03T13:36:58;8.10;1.00
23143;DHT22;11740;51.168;4.112;2023-03-03T13:39:31;8.30;1.00
23143;DHT22;11740;51.168;4.112;2023-03-03T13:42:02;8.40;1.00
23143;DHT22;11740;51.168;4.112;2023-03-03T13:44:35;8.40;1.00
23143;DHT22;11740;51.168;4.112;2023-03-03T13:52:44;8.40;1.00
23143;DHT22;11740;51.168;4.112;2023-03-03T13:55:25;8.50;1.00
23143;DHT22;11740;51.168;4.112;2023-03-03T13:58:11;8.70;1.00
23143;DHT22;11740;51.168;4.112;2023-03-03T14:01:01;8.80;1.00
23143;DHT22;11740;51.168;4.112;2023-03-03T14:06:09;9.20;1.00
23143;DHT22;11740;51.168;4.112;2023-03-03T14:08:53;9.20;1.00
23143;DHT22;11740;51.168;4.112;2023-03-03T14:20:38;9.40;1.00
23143;DHT22;11740;51.168;4.112;2023-03-03T14:23:13;9.80;1.00
23143;DHT22;11740;51.168;4.112;2023-03-03T14:28:26;10.20;99.90
23143;DHT22;11740;51.168;4.112;2023-03-03T14:30:57;10.20;99.90
23143;DHT22;11740;51.168;4.112;2023-03-03T14:33:41;10.30;99.90
23143;DHT22;11740;51.168;4.112;2023-03-03T14:36:10;10.40;99.90
23143;DHT22;11740;51.168;4.112;2023-03-03T14:38:40;10.30;99.90
23143;DHT22;11740;51.168;4.112;2023-03-03T14:43:40;10.30;99.90
23143;DHT22;11740;51.168;4.112;2023-03-03T14:48:51;10.20;99.90
23143;DHT22;11740;51.168;4.112;2023-03-03T14:51:39;10.30;99.90
23143;DHT22;11740;51.168;4.112;2023-03-03T14:54:07;10.60;99.90
23143;DHT22;11740;51.168;4.112;2023-03-03T14:56:53;10.60;99.90
23143;DHT22;11740;51.168;4.112;2023-03-03T14:59:29;10.50;99.90
23143;DHT22;11740;51.168;4.112;2023-03-03T15:02:09;10.40;99.90
23143;DHT22;11740;51.168;4.112;2023-03-03T15:04:43;10.40;99.90
23143;DHT22;11740;51.168;4.112;2023-03-03T15:09:53;10.60;99.90
23143;DHT22;11740;51.168;4.112;2023-03-03T15:12:21;11.00;99.90
23143;DHT22;11740;51.168;4.112;2023-03-03T15:14:49;11.10;99.90
23143;DHT22;11740;51.168;4.112;2023-03-03T15:25:23;11.10;99.90
23143;DHT22;11740;51.168;4.112;2023-03-03T15:28:25;11.40;99.90
23143;DHT22;11740;51.168;4.112;2023-03-03T15:31:08;11.50;99.90
23143;DHT22;11740;51.168;4.112;2023-03-03T15:34:17;11.30;99.90
23143;DHT22;11740;51.168;4.112;2023-03-03T15:36:55;11.40;99.90
23143;DHT22;11740;51.168;4.112;2023-03-03T15:39:31;11.60;99.90
23143;DHT22;11740;51.168;4.112;2023-03-03T15:47:33;11.80;99.90
23143;DHT22;11740;51.168;4.112;2023-03-03T15:55:45;11.80;99.90
23143;DHT22;11740;51.168;4.112;2023-03-03T16:03:51;11.50;99.90
23143;DHT22;11740;51.168;4.112;2023-03-03T16:06:24;11.50;99.90
23143;DHT22;11740;51.168;4.112;2023-03-03T16:08:56;11.40;99.90
23143;DHT22;11740;51.168;4.112;2023-03-03T16:22:32;11.10;99.90
23143;DHT22;11740;51.168;4.112;2023-03-03T16:28:05;11.00;99.90
23143;DHT22;11740;51.168;4.112;2023-03-03T16:33:23;11.10;99.90
23143;DHT22;11740;51.168;4.112;2023-03-03T16:36:02;11.20;99.90
23143;DHT22;11740;51.168;4.112;2023-03-03T16:38:49;11.10;99.90
23143;DHT22;11740;51.168;4.112;2023-03-03T16:41:23;11.20;99.90
23143;DHT22;11740;51.168;4.112;2023-03-03T16:46:45;11.10;99.90
23143;DHT22;11740;51.168;4.112;2023-03-03T16:52:11;11.00;99.90
23143;DHT22;11740;51.168;4.112;2023-03-03T16:54:46;11.00;99.90
23143;DHT22;11740;51.168;4.112;2023-03-03T16:58:04;11.00;99.90
23143;DHT22;11740;51.168;4.112;2023-03-03T17:00:20;10.80;99.90
23143;DHT22;11740;51.168;4.112;2023-03-03T17:11:34;10.60;99.90
23143;DHT22;11740;51.168;4.112;2023-03-03T17:22:13;10.40;99.90
23143;DHT22;11740;51.168;4.112;2023-03-03T17:24:46;10.40;99.90
23143;DHT22;11740;51.168;4.112;2023-03-03T17:30:25;10.30;99.90
23143;DHT22;11740;51.168;4.112;2023-03-03T17:33:22;10.10;99.90
23143;DHT22;11740;51.168;4.112;2023-03-03T17:36:17;10.20;99.90
23143;DHT22;11740;51.168;4.112;2023-03-03T17:42:18;10.20;99.90
23143;DHT22;11740;51.168;4.112;2023-03-03T17:47:04;9.90;99.90
23143;DHT22;11740;51.168;4.112;2023-03-03T18:06:40;9.60;99.90
23143;DHT22;11740;51.168;4.112;2023-03-03T18:09:28;9.30;99.90
23143;DHT22;11740;51.168;4.112;2023-03-03T18:12:05;9.20;99.90
23143;DHT22;11740;51.168;4.112;2023-03-03T18:17:59;9.30;99.90
23143;DHT22;11740;51.168;4.112;2023-03-03T18:25:54;9.10;99.90
23143;DHT22;11740;51.168;4.112;2023-03-03T18:28:23;9.00;99.90
23143;DHT22;11740;51.168;4.112;2023-03-03T18:31:02;9.00;99.90
23143;DHT22;11740;51.168;4.112;2023-03-03T18:33:34;9.00;99.90
23143;DHT22;11740;51.168;4.112;2023-03-03T18:38:53;8.80;99.90
23143;DHT22;11740;51.168;4.112;2023-03-03T18:41:22;8.70;99.90
23143;DHT22;11740;51.168;4.112;2023-03-03T18:43:52;8.60;99.90
23143;DHT22;11740;51.168;4.112;2023-03-03T18:48:54;8.60;99.90
23143;DHT22;11740;51.168;4.112;2023-03-03T18:56:44;8.50;99.90
23143;DHT22;11740;51.168;4.112;2023-03-03T19:04:39;8.50;99.90
23143;DHT22;11740;51.168;4.112;2023-03-03T19:12:11;8.30;99.90
23143;DHT22;11740;51.168;4.112;2023-03-03T19:14:45;8.20;99.90
23143;DHT22;11740;51.168;4.112;2023-03-03T19:22:48;8.10;99.90
23143;DHT22;11740;51.168;4.112;2023-03-03T19:25:23;8.10;99.90
23143;DHT22;11740;51.168;4.112;2023-03-03T20:04:05;7.50;99.90
23143;DHT22;11740;51.168;4.112;2023-03-03T20:14:58;7.40;99.90
23143;DHT22;11740;51.168;4.112;2023-03-03T20:50:26;6.90;99.90
23143;DHT22;11740;51.168;4.112;2023-03-03T20:53:17;6.90;99.90
23143;DHT22;11740;51.168;4.112;2023-03-03T21:01:40;6.90;99.90
23143;DHT22;11740;51.168;4.112;2023-03-03T21:04:21;6.80;99.90
23143;DHT22;11740;51.168;4.112;2023-03-03T21:06:52;6.80;99.90
23143;DHT22;11740;51.168;4.112;2023-03-03T21:09:24;6.80;99.90
23143;DHT22;11740;51.168;4.112;2023-03-03T21:11:52;6.80;99.90
23143;DHT22;11740;51.168;4.112;2023-03-03T21:16:48;6.80;99.90
23143;DHT22;11740;51.168;4.112;2023-03-03T21:19:29;6.80;99.90
23143;DHT22;11740;51.168;4.112;2023-03-03T21:21:57;6.80;99.90
23143;DHT22;11740;51.168;4.112;2023-03-03T21:27:29;6.80;99.90
23143;DHT22;11740;51.168;4.112;2023-03-03T21:30:15;6.70;99.90
23143;DHT22;11740;51.168;4.112;2023-03-03T21:32:43;6.70;99.90
23143;DHT22;11740;51.168;4.112;2023-03-03T21:37:41;6.70;99.90
23143;DHT22;11740;51.168;4.112;2023-03-03T21:40:24;6.70;99.90
23143;DHT22;11740;51.168;4.112;2023-03-03T21:42:54;6.70;99.90
23143;DHT22;11740;51.168;4.112;2023-03-03T21:45:22;6.60;99.90
23143;DHT22;11740;51.168;4.112;2023-03-03T21:47:50;6.60;99.90
23143;DHT22;11740;51.168;4.112;2023-03-03T21:50:19;6.50;99.90
23143;DHT22;11740;51.168;4.112;2023-03-03T21:52:47;6.60;99.90
23143;DHT22;11740;51.168;4.112;2023-03-03T21:55:14;6.50;99.90
23143;DHT22;11740;51.168;4.112;2023-03-03T21:57:41;6.50;99.90
23143;DHT22;11740;51.168;4.112;2023-03-03T22:00:08;6.50;99.90
23143;DHT22;11740;51.168;4.112;2023-03-03T22:02:36;6.40;99.90
23143;DHT22;11740;51.168;4.112;2023-03-03T22:05:03;6.40;99.90
23143;DHT22;11740;51.168;4.112;2023-03-03T22:07:33;6.40;99.90
23143;DHT22;11740;51.168;4.112;2023-03-03T22:10:00;6.40;99.90
23143;DHT22;11740;51.168;4.112;2023-03-03T22:12:27;6.40;99.90
23143;DHT22;11740;51.168;4.112;2023-03-03T22:14:53;6.40;99.90
23143;DHT22;11740;51.168;4.112;2023-03-03T22:17:20;6.40;99.90
23143;DHT22;11740;51.168;4.112;2023-03-03T22:19:51;6.40;99.90
23143;DHT22;11740;51.168;4.112;2023-03-03T22:22:18;6.40;99.90
23143;DHT22;11740;51.168;4.112;2023-03-03T22:24:44;6.30;99.90
23143;DHT22;11740;51.168;4.112;2023-03-03T22:27:11;6.30;99.90
23143;DHT22;11740;51.168;4.112;2023-03-03T22:29:38;6.30;99.90
23143;DHT22;11740;51.168;4.112;2023-03-03T22:32:05;6.20;99.90
23143;DHT22;11740;51.168;4.112;2023-03-03T22:34:32;6.20;99.90
23143;DHT22;11740;51.168;4.112;2023-03-03T22:36:59;6.20;99.90
23143;DHT22;11740;51.168;4.112;2023-03-03T22:39:26;6.20;99.90
23143;DHT22;11740;51.168;4.112;2023-03-03T22:41:52;6.20;99.90
23143;DHT22;11740;51.168;4.112;2023-03-03T22:44:19;6.20;99.90
23143;DHT22;11740;51.168;4.112;2023-03-03T22:46:46;6.20;99.90
23143;DHT22;11740;51.168;4.112;2023-03-03T22:49:13;6.20;99.90
23143;DHT22;11740;51.168;4.112;2023-03-03T22:51:40;6.20;99.90
23143;DHT22;11740;51.168;4.112;2023-03-03T22:54:07;6.20;99.90
23143;DHT22;11740;51.168;4.112;2023-03-03T22:56:33;6.20;99.90
23143;DHT22;11740;51.168;4.112;2023-03-03T22:59:00;6.10;99.90
23143;DHT22;11740;51.168;4.112;2023-03-03T23:01:27;6.00;99.90
23143;DHT22;11740;51.168;4.112;2023-03-03T23:03:54;6.00;99.90
23143;DHT22;11740;51.168;4.112;2023-03-03T23:06:21;6.00;99.90
23143;DHT22;11740;51.168;4.112;2023-03-03T23:08:48;6.10;99.90
23143;DHT22;11740;51.168;4.112;2023-03-03T23:11:14;6.10;99.90
23143;DHT22;11740;51.168;4.112;2023-03-03T23:13:41;6.00;99.90
23143;DHT22;11740;51.168;4.112;2023-03-03T23:16:08;6.00;99.90